Keyport, Washington
Current Conditions -  °F | °C
As of 8:55 PM on Wednesday 22 Oct 2014 (Local Time) from KPWT Reporting Station
Broken Clouds Broken Clouds  
Wind Chill: 12°   Ceiling: 3300
Heat Index: 12°   Visibility: 10mi
Dew Point: 11°   Wind: 13mph
Humidity: 94%   Direction: 180°S
Pressure: 29.62"   Gusts: 18mph
Location:  47.7°N, 122.62°W
Report Text: KPWT 230355Z AUTO 18011G16KT 10SM SCT023 BKN033 BKN095 12/11 A2962 RMK AO1 P0011
Loading
Personal Weather Stations






























Interactive Weather Map
Tropical Storm Tracking
New forecast layout! Learn more

10-Day Weather Forecast

Advertisements
Track Severe Weather on mobile